Time;durP1;ratioP1;P1;durP2;ratioP2;P2;SDS_P1;SDS_P2;PMS_P1;PMS_P2;Temp;Humidity;BMP_temperature;BMP_pressure;BME280_temperature;BME280_humidity;BME280_pressure;Samples;Min_cycle;Max_cycle;Signal;HPM_P1;HPM_P2
2022/03/30 00:01:54;;;;;;;28.00;12.40;;;5.30;99.90;;;;;;5075728;28;20488;-70
2022/03/30 00:04:21;;;;;;;26.92;13.18;;;5.30;99.90;;;;;;5075635;28;20056;-70
2022/03/30 00:06:48;;;;;;;25.40;11.90;;;5.30;99.90;;;;;;5076001;28;20051;-70
2022/03/30 00:09:16;;;;;;;20.48;11.13;;;5.30;99.90;;;;;;5075541;28;20048;-70
2022/03/30 00:11:43;;;;;;;23.58;11.65;;;5.30;99.90;;;;;;5093095;28;20052;-70
2022/03/30 00:14:10;;;;;;;24.92;12.70;;;5.30;99.90;;;;;;5075946;28;20112;-70
2022/03/30 00:16:36;;;;;;;24.95;13.00;;;5.40;99.90;;;;;;5075559;28;20072;-70
2022/03/30 00:19:04;;;;;;;26.67;13.77;;;5.40;99.90;;;;;;5093407;28;20048;-70
2022/03/30 00:21:31;;;;;;;28.63;13.10;;;5.40;99.90;;;;;;5093674;28;20044;-71
2022/03/30 00:23:58;;;;;;;30.58;13.95;;;5.40;99.90;;;;;;5092985;28;20411;-70
2022/03/30 00:26:26;;;;;;;26.33;13.15;;;5.40;99.90;;;;;;5093452;28;20461;-70
2022/03/30 00:28:53;;;;;;;27.15;13.57;;;5.30;99.90;;;;;;5093531;28;20055;-70
2022/03/30 00:31:21;;;;;;;24.98;12.73;;;5.30;99.90;;;;;;5093065;28;20051;-70
2022/03/30 00:33:48;;;;;;;26.73;13.20;;;5.30;99.90;;;;;;5093648;28;20048;-71
2022/03/30 00:36:15;;;;;;;24.58;13.05;;;5.30;99.90;;;;;;5075384;28;20438;-70
2022/03/30 00:38:42;;;;;;;28.15;12.80;;;5.30;99.90;;;;;;5075007;28;20048;-70
2022/03/30 00:41:09;;;;;;;34.63;14.15;;;5.40;99.90;;;;;;5075384;28;20097;-70
2022/03/30 00:43:37;;;;;;;26.05;12.70;;;5.40;99.90;;;;;;5075168;28;20079;-70
2022/03/30 00:46:04;;;;;;;23.90;12.13;;;5.40;99.90;;;;;;5092967;28;20120;-70
2022/03/30 00:48:31;;;;;;;24.63;12.55;;;5.50;99.90;;;;;;5093152;28;20491;-69
2022/03/30 00:50:57;;;;;;;23.77;13.50;;;5.50;99.90;;;;;;5075548;28;20059;-69
2022/03/30 00:53:24;;;;;;;26.50;14.55;;;5.40;99.90;;;;;;5092688;28;20048;-70
2022/03/30 00:55:53;;;;;;;25.92;13.88;;;5.40;99.90;;;;;;5093536;28;20104;-70
2022/03/30 00:58:21;;;;;;;22.45;12.52;;;5.30;99.90;;;;;;5093493;28;20052;-70
2022/03/30 01:00:50;;;;;;;27.75;14.05;;;5.30;99.90;;;;;;5093118;28;20051;-70
2022/03/30 01:03:17;;;;;;;28.70;13.25;;;5.20;99.90;;;;;;5093152;28;20052;-70
2022/03/30 01:05:44;;;;;;;25.17;14.20;;;5.20;99.90;;;;;;5093124;28;20134;-70
2022/03/30 01:08:11;;;;;;;27.63;12.93;;;5.30;99.90;;;;;;5074397;28;20055;-71
2022/03/30 01:10:38;;;;;;;31.92;13.90;;;5.20;99.90;;;;;;5075332;28;20052;-70
2022/03/30 01:13:07;;;;;;;34.10;14.70;;;5.20;99.90;;;;;;5092919;28;20414;-70
2022/03/30 01:15:34;;;;;;;23.67;12.57;;;5.20;99.90;;;;;;5075836;28;20059;-70
2022/03/30 01:18:03;;;;;;;25.15;12.88;;;5.20;99.90;;;;;;5074952;28;20133;-70
2022/03/30 01:20:30;;;;;;;29.27;12.07;;;5.20;99.90;;;;;;5070676;28;20037;-70
2022/03/30 01:22:58;;;;;;;23.55;12.68;;;5.20;99.90;;;;;;5072581;28;20052;-70
2022/03/30 01:25:26;;;;;;;22.67;11.38;;;5.30;99.90;;;;;;5072864;28;20044;-70
2022/03/30 01:27:52;;;;;;;23.15;11.63;;;5.30;99.90;;;;;;5050628;28;20057;-71
2022/03/30 01:33:05;;;;;;;21.60;11.35;;;5.30;99.90;;;;;;5052818;28;20106;-71
2022/03/30 01:35:33;;;;;;;26.77;12.32;;;5.30;99.90;;;;;;5050827;28;20060;-70
2022/03/30 01:38:01;;;;;;;24.73;12.35;;;5.30;99.90;;;;;;5052605;28;20063;-71
2022/03/30 01:40:28;;;;;;;27.80;12.93;;;5.40;99.90;;;;;;5052568;28;20045;-71
2022/03/30 01:42:55;;;;;;;27.67;13.05;;;5.40;99.90;;;;;;5050464;28;20102;-71
2022/03/30 01:45:22;;;;;;;23.92;11.65;;;5.40;99.90;;;;;;5053095;28;20456;-71
2022/03/30 01:47:51;;;;;;;26.90;12.48;;;5.40;99.90;;;;;;5072514;28;20064;-69
2022/03/30 01:50:18;;;;;;;24.02;12.43;;;5.40;99.90;;;;;;5072045;28;20496;-68
2022/03/30 01:52:46;;;;;;;27.45;14.13;;;5.50;99.90;;;;;;5071238;28;20407;-70
2022/03/30 01:55:15;;;;;;;23.88;13.57;;;5.50;99.90;;;;;;5072537;28;20049;-69
2022/03/30 01:57:41;;;;;;;34.78;13.52;;;5.50;99.90;;;;;;5071356;28;20178;-69
2022/03/30 02:00:10;;;;;;;22.75;13.25;;;5.40;99.90;;;;;;5070871;28;20110;-70
2022/03/30 02:02:38;;;;;;;27.92;13.68;;;5.40;99.90;;;;;;5070446;28;20110;-68
2022/03/30 02:05:07;;;;;;;29.95;13.10;;;5.50;99.90;;;;;;5071217;28;20052;-69
2022/03/30 02:07:34;;;;;;;30.75;13.02;;;5.50;99.90;;;;;;5071365;28;20060;-68
2022/03/30 02:10:01;;;;;;;27.13;12.35;;;5.50;99.90;;;;;;5071567;28;20561;-69
2022/03/30 02:12:29;;;;;;;31.40;13.85;;;5.50;99.90;;;;;;5072381;28;20053;-69
2022/03/30 02:14:57;;;;;;;23.05;11.77;;;5.50;99.90;;;;;;5074440;28;20102;-70
2022/03/30 02:17:26;;;;;;;26.52;12.95;;;5.50;99.90;;;;;;5074308;28;20467;-70
2022/03/30 02:19:53;;;;;;;26.30;13.23;;;5.60;99.90;;;;;;5074556;28;20048;-70
2022/03/30 02:22:21;;;;;;;25.27;12.70;;;5.60;99.90;;;;;;5074413;28;20040;-70
2022/03/30 02:24:48;;;;;;;26.40;13.07;;;5.70;99.90;;;;;;5074007;28;20488;-70
2022/03/30 02:27:15;;;;;;;18.75;11.82;;;5.70;99.90;;;;;;5073995;28;20103;-70
2022/03/30 02:29:44;;;;;;;24.63;11.15;;;5.80;99.90;;;;;;5075881;28;20055;-70
2022/03/30 02:32:10;;;;;;;16.85;9.02;;;5.80;99.90;;;;;;5060785;28;20560;-70
2022/03/30 02:34:38;;;;;;;16.95;9.13;;;5.80;99.90;;;;;;5095820;28;20122;-70
2022/03/30 02:37:06;;;;;;;14.60;7.38;;;5.80;99.90;;;;;;5077918;28;20047;-70
2022/03/30 02:39:32;;;;;;;12.88;5.90;;;5.90;99.90;;;;;;5095113;28;20052;-70
2022/03/30 02:41:59;;;;;;;13.85;4.93;;;5.90;99.90;;;;;;5095651;28;20438;-70
2022/03/30 02:44:26;;;;;;;9.60;3.38;;;5.90;99.90;;;;;;5095764;28;20105;-70
2022/03/30 02:46:55;;;;;;;5.10;2.17;;;5.90;99.90;;;;;;5076819;28;20052;-69
2022/03/30 02:49:22;;;;;;;7.43;1.60;;;5.90;99.90;;;;;;5077425;28;20055;-70
2022/03/30 02:51:48;;;;;;;4.50;1.50;;;5.90;99.90;;;;;;5095096;28;20052;-70
2022/03/30 02:54:15;;;;;;;4.60;1.33;;;6.00;99.90;;;;;;5095315;28;20169;-70
2022/03/30 02:56:42;;;;;;;3.85;1.42;;;6.00;99.90;;;;;;5095326;28;20047;-70
2022/03/30 02:59:09;;;;;;;4.78;1.40;;;6.00;99.90;;;;;;5094958;28;20445;-70
2022/03/30 03:01:36;;;;;;;1.77;0.93;;;6.00;99.90;;;;;;5077473;28;20425;-71
2022/03/30 03:04:04;;;;;;;4.03;0.90;;;5.90;99.90;;;;;;5077459;28;20109;-71
2022/03/30 03:06:32;;;;;;;2.60;0.98;;;5.90;99.90;;;;;;5095009;28;20385;-70
2022/03/30 03:08:59;;;;;;;5.70;1.60;;;5.90;99.90;;;;;;5077300;28;20123;-69
2022/03/30 03:11:26;;;;;;;3.17;1.13;;;5.90;99.90;;;;;;5095191;28;20457;-70
2022/03/30 03:13:53;;;;;;;2.22;1.02;;;5.90;99.90;;;;;;5094338;28;20048;-70
2022/03/30 03:16:20;;;;;;;6.47;1.13;;;5.90;99.90;;;;;;5076862;28;20048;-70
2022/03/30 03:18:47;;;;;;;3.85;1.02;;;5.90;99.90;;;;;;5077234;28;20071;-70
2022/03/30 03:21:15;;;;;;;2.50;1.08;;;6.00;99.90;;;;;;5076497;28;20043;-70
2022/03/30 03:23:42;;;;;;;4.90;1.00;;;5.90;99.90;;;;;;5075965;28;20395;-71
2022/03/30 03:26:09;;;;;;;2.75;1.20;;;5.90;99.90;;;;;;5076497;28;20071;-69
2022/03/30 03:28:36;;;;;;;2.15;0.95;;;5.90;99.90;;;;;;5094428;28;20051;-70
2022/03/30 03:31:04;;;;;;;2.25;0.80;;;5.90;99.90;;;;;;5094620;28;20453;-70
2022/03/30 03:33:32;;;;;;;2.35;1.00;;;5.90;99.90;;;;;;5094743;28;20052;-70
2022/03/30 03:35:59;;;;;;;2.70;0.70;;;5.90;99.90;;;;;;5094016;28;20060;-71
2022/03/30 03:38:27;;;;;;;6.15;0.90;;;5.80;99.90;;;;;;5094684;28;20130;-70
2022/03/30 03:40:54;;;;;;;1.40;0.77;;;5.80;99.90;;;;;;5075945;28;20044;-70
2022/03/30 03:43:21;;;;;;;1.58;0.70;;;5.80;99.90;;;;;;5094434;28;20059;-70
2022/03/30 03:45:48;;;;;;;2.90;0.70;;;5.80;99.90;;;;;;5094222;28;20411;-70
2022/03/30 03:48:15;;;;;;;2.28;0.80;;;5.80;99.90;;;;;;5091516;28;20048;-70
2022/03/30 03:50:43;;;;;;;2.45;0.60;;;5.70;99.90;;;;;;5059434;28;20106;-70
2022/03/30 03:53:09;;;;;;;1.75;0.60;;;5.70;99.90;;;;;;5065806;28;20048;-70
2022/03/30 03:55:38;;;;;;;3.63;0.60;;;5.60;99.90;;;;;;5084751;28;20055;-70
2022/03/30 03:58:07;;;;;;;3.83;0.65;;;5.60;99.90;;;;;;5073480;28;20350;-69
2022/03/30 04:00:35;;;;;;;1.27;0.60;;;5.50;99.90;;;;;;5084803;28;20399;-69
2022/03/30 04:03:02;;;;;;;4.97;0.65;;;5.40;99.90;;;;;;5068928;28;20106;-69
2022/03/30 04:05:29;;;;;;;2.95;0.88;;;5.40;99.90;;;;;;5088370;28;20048;-69
2022/03/30 04:07:56;;;;;;;2.40;0.50;;;5.40;99.90;;;;;;5066644;28;20057;-69
2022/03/30 04:10:23;;;;;;;2.47;0.85;;;5.40;99.90;;;;;;5068645;28;20097;-70
2022/03/30 04:12:51;;;;;;;4.40;0.80;;;5.30;99.90;;;;;;5064483;28;20106;-70
2022/03/30 04:15:18;;;;;;;0.55;0.40;;;5.30;99.90;;;;;;5086835;28;20048;-70
2022/03/30 04:17:46;;;;;;;1.45;0.65;;;5.30;99.90;;;;;;5068176;28;20051;-70
2022/03/30 04:20:14;;;;;;;3.22;1.23;;;5.30;99.90;;;;;;5086764;28;20047;-70
2022/03/30 04:22:41;;;;;;;2.75;1.20;;;5.30;99.90;;;;;;5091333;28;20062;-69
2022/03/30 04:25:09;;;;;;;2.08;1.00;;;5.20;99.90;;;;;;5065873;28;20044;-69
2022/03/30 04:27:36;;;;;;;2.35;1.00;;;5.10;99.90;;;;;;5065677;28;20064;-69
2022/03/30 04:30:05;;;;;;;5.13;1.25;;;5.10;99.90;;;;;;5067271;28;20056;-68
2022/03/30 04:32:32;;;;;;;2.50;0.93;;;5.00;99.90;;;;;;5082850;28;20040;-68
2022/03/30 04:34:59;;;;;;;3.03;0.90;;;4.90;99.90;;;;;;5086736;28;20056;-70
2022/03/30 04:37:26;;;;;;;2.63;0.90;;;4.90;99.90;;;;;;5065597;28;20067;-68
2022/03/30 04:39:53;;;;;;;2.65;0.85;;;4.80;99.90;;;;;;5068339;28;20106;-70
2022/03/30 04:42:21;;;;;;;3.53;0.90;;;4.80;99.90;;;;;;5070251;28;20052;-70
2022/03/30 04:44:48;;;;;;;4.15;1.10;;;4.70;99.90;;;;;;5054152;28;20056;-68
2022/03/30 04:47:16;;;;;;;3.20;1.30;;;4.70;99.90;;;;;;5077210;28;20044;-68
2022/03/30 04:49:43;;;;;;;4.55;1.38;;;4.70;99.90;;;;;;5065195;28;20052;-68
2022/03/30 04:52:10;;;;;;;3.40;1.60;;;4.60;99.90;;;;;;5077932;28;20094;-68
2022/03/30 04:54:37;;;;;;;4.43;1.35;;;4.60;99.90;;;;;;5054693;28;20114;-69
2022/03/30 04:57:05;;;;;;;3.95;1.40;;;4.60;99.90;;;;;;5053823;28;20094;-70
2022/03/30 04:59:32;;;;;;;3.28;1.40;;;4.60;99.90;;;;;;5053396;28;20056;-68
2022/03/30 05:01:59;;;;;;;2.35;1.30;;;4.50;99.90;;;;;;5058521;28;20044;-68
2022/03/30 05:04:29;;;;;;;3.05;1.30;;;4.50;99.90;;;;;;5062333;28;20060;-68
2022/03/30 05:06:56;;;;;;;3.77;1.47;;;4.50;99.90;;;;;;5056832;28;20056;-69
2022/03/30 05:09:23;;;;;;;4.50;1.38;;;4.40;99.90;;;;;;5073866;28;20052;-68
2022/03/30 05:11:51;;;;;;;2.53;1.50;;;4.50;99.90;;;;;;5083816;28;20044;-68
2022/03/30 05:14:18;;;;;;;3.22;1.20;;;4.50;99.90;;;;;;5063553;28;20044;-68
2022/03/30 05:16:45;;;;;;;4.57;1.20;;;4.40;99.90;;;;;;5065630;28;20097;-69
2022/03/30 05:19:12;;;;;;;3.35;1.60;;;4.30;99.90;;;;;;5068446;28;20076;-68
2022/03/30 05:21:41;;;;;;;2.97;1.38;;;4.30;99.90;;;;;;5084048;28;20040;-69
2022/03/30 05:24:08;;;;;;;4.72;1.70;;;4.30;99.90;;;;;;5064928;28;20053;-68
2022/03/30 05:26:35;;;;;;;3.45;1.60;;;4.30;99.90;;;;;;5064993;28;20057;-68
2022/03/30 05:29:02;;;;;;;5.32;1.60;;;4.20;99.90;;;;;;5061523;28;20048;-68
2022/03/30 05:31:29;;;;;;;4.30;1.83;;;4.20;99.90;;;;;;5066987;28;20373;-68
2022/03/30 05:33:55;;;;;;;4.65;1.90;;;4.20;99.90;;;;;;5071602;28;20101;-68
2022/03/30 05:36:22;;;;;;;4.85;2.05;;;4.20;99.90;;;;;;5062016;28;20099;-69
2022/03/30 05:38:51;;;;;;;5.07;1.80;;;4.20;99.90;;;;;;5084504;28;20044;-68
2022/03/30 05:41:18;;;;;;;6.38;2.20;;;4.20;99.90;;;;;;5084143;28;20416;-68
2022/03/30 05:43:45;;;;;;;3.42;1.52;;;4.20;99.90;;;;;;5084806;28;20044;-68
2022/03/30 05:46:12;;;;;;;5.57;1.35;;;4.20;99.90;;;;;;5065416;28;20055;-68
2022/03/30 05:48:39;;;;;;;4.72;1.67;;;4.30;99.90;;;;;;5074449;28;20097;-68
2022/03/30 05:51:06;;;;;;;6.25;1.33;;;4.30;99.90;;;;;;5088152;28;20398;-69
2022/03/30 05:53:34;;;;;;;5.82;1.52;;;4.30;99.90;;;;;;5068415;28;20053;-69
2022/03/30 05:56:03;;;;;;;6.10;2.50;;;4.30;99.90;;;;;;5088411;28;20040;-69
2022/03/30 05:58:29;;;;;;;4.50;2.22;;;4.40;99.90;;;;;;5091324;28;20509;-68
2022/03/30 06:00:56;;;;;;;4.75;1.67;;;4.40;99.90;;;;;;5071423;28;20056;-68
2022/03/30 06:03:23;;;;;;;2.45;1.48;;;4.50;99.90;;;;;;5069042;28;20048;-68
2022/03/30 06:05:51;;;;;;;4.70;1.98;;;4.50;99.90;;;;;;5093364;28;20070;-68
2022/03/30 06:08:18;;;;;;;5.75;1.35;;;4.50;99.90;;;;;;5069945;28;20056;-68
2022/03/30 06:10:45;;;;;;;7.72;1.83;;;4.60;99.90;;;;;;5084630;28;20052;-69
2022/03/30 06:13:13;;;;;;;3.80;1.70;;;4.60;99.90;;;;;;5066650;28;20099;-68
2022/03/30 06:15:41;;;;;;;4.38;1.80;;;4.70;99.90;;;;;;5068540;28;20101;-68
2022/03/30 06:18:10;;;;;;;7.00;2.05;;;4.80;99.90;;;;;;5091110;28;20048;-68
2022/03/30 06:20:38;;;;;;;7.70;1.97;;;4.90;99.90;;;;;;5088086;28;20047;-69
2022/03/30 06:23:05;;;;;;;5.72;1.70;;;4.90;99.90;;;;;;5066811;28;20049;-68
2022/03/30 06:25:32;;;;;;;5.97;2.47;;;5.00;99.90;;;;;;5087255;28;20105;-69
2022/03/30 06:27:59;;;;;;;4.63;1.67;;;5.00;99.90;;;;;;5072857;28;20059;-68
2022/03/30 06:30:28;;;;;;;6.95;2.17;;;5.10;99.90;;;;;;5081153;28;20399;-69
2022/03/30 06:32:55;;;;;;;5.47;2.13;;;5.20;99.90;;;;;;5078641;28;20373;-67
2022/03/30 06:35:23;;;;;;;4.68;1.75;;;5.30;99.90;;;;;;5115905;28;20048;-68
2022/03/30 06:37:50;;;;;;;5.72;1.75;;;5.40;99.90;;;;;;5081487;28;20105;-68
2022/03/30 06:40:18;;;;;;;5.20;1.70;;;5.50;99.90;;;;;;5080964;28;20083;-68
2022/03/30 06:42:45;;;;;;;8.60;2.45;;;5.60;99.90;;;;;;5098154;28;20056;-68
2022/03/30 06:45:12;;;;;;;12.27;2.05;;;5.80;99.90;;;;;;5097007;28;20051;-68
2022/03/30 06:47:41;;;;;;;6.07;2.63;;;6.00;99.90;;;;;;5115982;28;20121;-69
2022/03/30 06:50:09;;;;;;;3.83;1.80;;;6.10;99.90;;;;;;5084458;28;20052;-69
2022/03/30 06:52:36;;;;;;;6.38;2.13;;;6.20;99.90;;;;;;5075439;28;20052;-69
2022/03/30 06:55:05;;;;;;;11.15;3.08;;;6.20;99.90;;;;;;5065645;28;20058;-69
2022/03/30 06:57:31;;;;;;;8.85;2.45;;;6.20;99.90;;;;;;5073675;28;20045;-69
2022/03/30 06:59:59;;;;;;;4.80;1.60;;;6.40;99.90;;;;;;5056745;28;20048;-69
2022/03/30 07:02:25;;;;;;;7.20;2.55;;;6.60;99.90;;;;;;5063074;28;20044;-68
2022/03/30 07:04:54;;;;;;;4.50;1.65;;;6.70;99.90;;;;;;5094422;28;20059;-69
2022/03/30 07:10:18;;;;;;;7.72;2.97;;;7.10;99.90;;;;;;5095976;28;20538;-70
2022/03/30 07:12:47;;;;;;;3.17;1.50;;;7.30;99.90;;;;;;5094526;28;20106;-69
2022/03/30 07:15:15;;;;;;;3.78;1.50;;;7.60;99.90;;;;;;5076842;28;20438;-69
2022/03/30 07:17:47;;;;;;;2.78;1.35;;;7.90;99.90;;;;;;5076718;28;20051;-70
2022/03/30 07:20:16;;;;;;;4.05;1.52;;;8.00;99.90;;;;;;5076230;28;20056;-70
2022/03/30 07:22:44;;;;;;;5.53;1.48;;;8.10;99.90;;;;;;5076700;28;20052;-70
2022/03/30 07:25:13;;;;;;;5.50;1.63;;;8.40;99.90;;;;;;5073023;28;20048;-70
2022/03/30 07:27:41;;;;;;;10.32;1.70;;;8.60;99.90;;;;;;5055896;28;20102;-70
2022/03/30 07:30:09;;;;;;;5.03;1.48;;;8.80;99.90;;;;;;5074645;28;20148;-70
2022/03/30 07:32:38;;;;;;;9.32;1.67;;;9.00;99.90;;;;;;5056533;28;20164;-70
2022/03/30 07:35:05;;;;;;;4.70;1.25;;;8.90;99.90;;;;;;5056063;28;20052;-70
2022/03/30 07:37:34;;;;;;;3.42;1.20;;;9.10;99.90;;;;;;5089035;28;20044;-69
2022/03/30 07:40:02;;;;;;;4.88;1.50;;;9.30;99.90;;;;;;5074818;28;20438;-68
2022/03/30 07:42:29;;;;;;;5.50;1.95;;;9.30;99.90;;;;;;5092929;28;20044;-69
2022/03/30 07:44:56;;;;;;;5.32;1.55;;;9.40;99.90;;;;;;5080172;28;20465;-69
2022/03/30 07:47:24;;;;;;;7.57;1.58;;;9.30;99.90;;;;;;5085283;28;20052;-69
2022/03/30 07:49:51;;;;;;;5.63;1.67;;;9.30;99.90;;;;;;5094384;28;20043;-69
2022/03/30 07:52:18;;;;;;;8.13;2.30;;;9.30;99.90;;;;;;5094111;28;20052;-70
2022/03/30 07:54:46;;;;;;;5.55;1.80;;;9.40;99.90;;;;;;5075594;28;20048;-70
2022/03/30 07:57:13;;;;;;;4.28;1.10;;;9.50;99.90;;;;;;5076033;28;20052;-71
2022/03/30 07:59:39;;;;;;;3.22;1.23;;;9.50;99.90;;;;;;5094338;28;20048;-68
2022/03/30 08:02:06;;;;;;;5.35;1.55;;;9.50;99.90;;;;;;5087826;28;20048;-68
2022/03/30 08:04:33;;;;;;;6.47;1.60;;;9.40;99.90;;;;;;5076188;28;20487;-69
2022/03/30 08:07:00;;;;;;;4.40;1.50;;;9.30;99.90;;;;;;5093665;28;20056;-68
2022/03/30 08:09:27;;;;;;;3.13;1.10;;;9.20;99.90;;;;;;5074925;28;20065;-69
2022/03/30 08:11:55;;;;;;;4.43;1.20;;;8.90;99.90;;;;;;5075781;28;20052;-69
2022/03/30 08:14:22;;;;;;;6.13;2.10;;;8.70;99.90;;;;;;5093853;28;20048;-69
2022/03/30 08:16:49;;;;;;;10.20;2.35;;;8.30;99.90;;;;;;5074881;28;20101;-68
2022/03/30 08:19:16;;;;;;;5.35;1.77;;;8.00;99.90;;;;;;5075597;28;20508;-69
2022/03/30 08:24:27;;;;;;;7.00;2.33;;;7.60;99.90;;;;;;5093108;28;20054;-69
2022/03/30 08:26:55;;;;;;;2.70;1.20;;;7.70;99.90;;;;;;5075150;28;20052;-70
2022/03/30 08:29:23;;;;;;;2.42;1.08;;;7.60;99.90;;;;;;5074602;28;20052;-69
2022/03/30 08:31:50;;;;;;;5.40;1.65;;;7.70;99.90;;;;;;5075254;28;20052;-69
2022/03/30 08:34:18;;;;;;;4.60;1.40;;;7.70;99.90;;;;;;5093003;28;20089;-69
2022/03/30 08:36:45;;;;;;;4.05;1.00;;;7.90;99.90;;;;;;5072587;28;20044;-69
2022/03/30 08:39:12;;;;;;;3.17;0.93;;;8.00;99.90;;;;;;5080132;28;20125;-69
2022/03/30 08:41:43;;;;;;;3.28;1.05;;;8.30;99.90;;;;;;5109450;28;20073;-69
2022/03/30 08:44:14;;;;;;;3.83;1.25;;;8.50;99.90;;;;;;5094663;28;20075;-69
2022/03/30 08:46:41;;;;;;;;;;;8.70;99.90;;;;;;5095965;28;20104;-69
2022/03/30 08:49:09;;;;;;;7.30;1.45;;;8.90;99.90;;;;;;5095229;28;19924;-69
2022/03/30 08:51:39;;;;;;;3.65;1.15;;;9.30;99.90;;;;;;5085998;28;20058;-69
2022/03/30 08:54:10;;;;;;;4.00;1.17;;;9.90;99.90;;;;;;5075251;28;20556;-69
2022/03/30 08:56:37;;;;;;;4.85;1.33;;;10.10;99.90;;;;;;5075028;28;20117;-69
2022/03/30 08:59:05;;;;;;;4.57;2.08;;;10.60;99.90;;;;;;5074239;28;20059;-69
2022/03/30 09:01:36;;;;;;;3.88;0.93;;;10.60;99.90;;;;;;5093227;28;20105;-69
2022/03/30 09:04:08;;;;;;;5.35;2.15;;;10.30;99.90;;;;;;5074785;28;20102;-69
2022/03/30 09:06:36;;;;;;;6.32;1.30;;;10.40;99.90;;;;;;5074536;28;20087;-69
2022/03/30 09:09:04;;;;;;;4.53;1.98;;;10.70;99.90;;;;;;5093124;28;20044;-70
2022/03/30 09:11:40;;;;;;;5.30;2.10;;;10.60;99.90;;;;;;5092404;28;20519;-70
2022/03/30 09:14:09;;;;;;;6.57;1.90;;;10.90;99.90;;;;;;5075056;28;20506;-70
2022/03/30 09:16:44;;;;;;;3.58;0.88;;;10.90;99.90;;;;;;5074814;28;20079;-70
2022/03/30 09:19:12;;;;;;;2.35;1.15;;;11.10;99.90;;;;;;5074288;28;20136;-70
2022/03/30 09:21:44;;;;;;;3.63;0.93;;;11.40;99.90;;;;;;5075237;28;20048;-70
2022/03/30 09:24:12;;;;;;;6.05;1.70;;;11.30;99.90;;;;;;5074942;28;20467;-69
2022/03/30 09:26:39;;;;;;;3.85;1.30;;;11.30;99.40;;;;;;5073292;28;20060;-69
2022/03/30 09:29:08;;;;;;;4.38;1.60;;;11.10;99.30;;;;;;5096941;28;20055;-70
2022/03/30 09:31:36;;;;;;;2.08;0.95;;;11.10;99.40;;;;;;5097027;28;20047;-69
2022/03/30 09:34:06;;;;;;;3.10;1.00;;;11.40;99.90;;;;;;5078295;28;20048;-69
2022/03/30 09:36:35;;;;;;;3.53;0.70;;;11.40;97.70;;;;;;5079142;28;20097;-69
2022/03/30 09:39:03;;;;;;;4.18;1.10;;;11.50;95.90;;;;;;5078845;28;20052;-69
2022/03/30 09:41:45;;;;;;;4.32;1.00;;;11.70;96.60;;;;;;5106991;28;20044;-69
2022/03/30 09:44:13;;;;;;;3.10;1.20;;;12.00;94.00;;;;;;5078475;28;20050;-69
2022/03/30 09:46:52;;;;;;;3.50;0.90;;;12.00;93.40;;;;;;5079076;28;20044;-70
2022/03/30 09:49:37;;;;;;;3.67;1.20;;;11.80;93.10;;;;;;5078648;28;20052;-70
2022/03/30 09:52:14;;;;;;;3.88;1.30;;;11.90;93.60;;;;;;5094730;28;20050;-70
2022/03/30 09:54:43;;;;;;;4.60;0.98;;;12.00;93.30;;;;;;5071022;28;20080;-69
2022/03/30 09:57:12;;;;;;;2.95;0.80;;;12.00;93.10;;;;;;5060349;28;20102;-69
2022/03/30 10:00:05;;;;;;;6.00;1.38;;;12.20;93.10;;;;;;5074991;28;20049;-69
2022/03/30 10:02:34;;;;;;;4.00;1.00;;;12.50;93.20;;;;;;5061648;28;20052;-70
2022/03/30 10:05:03;;;;;;;4.03;1.10;;;12.80;92.60;;;;;;5074185;28;20060;-70
2022/03/30 10:07:31;;;;;;;5.78;0.95;;;13.30;91.50;;;;;;5065821;28;20053;-69
2022/03/30 10:09:59;;;;;;;4.00;1.20;;;13.40;90.90;;;;;;5073963;28;20052;-70
2022/03/30 10:12:27;;;;;;;1.65;0.90;;;13.60;90.50;;;;;;5074208;28;20044;-70
2022/03/30 10:14:55;;;;;;;3.25;1.40;;;13.60;91.00;;;;;;5083784;28;20041;-69
2022/03/30 10:17:24;;;;;;;4.53;1.20;;;13.50;90.70;;;;;;5074388;28;20573;-69
2022/03/30 10:19:52;;;;;;;2.40;0.90;;;12.80;89.40;;;;;;5056597;28;20087;-69
2022/03/30 10:23:00;;;;;;;5.15;1.48;;;12.30;91.40;;;;;;5074503;28;20056;-70
2022/03/30 10:25:54;;;;;;;7.00;1.20;;;11.60;94.40;;;;;;5080630;28;20048;-70
2022/03/30 10:28:24;;;;;;;4.63;1.38;;;10.80;96.60;;;;;;5070342;28;20502;-69
2022/03/30 10:30:53;;;;;;;5.00;2.17;;;10.40;96.60;;;;;;5093032;28;20063;-69
2022/03/30 10:33:32;;;;;;;4.75;1.63;;;10.20;98.40;;;;;;5057446;28;20054;-69
2022/03/30 10:36:00;;;;;;;5.88;1.60;;;10.00;99.30;;;;;;5091621;28;20043;-69
2022/03/30 10:38:28;;;;;;;3.53;1.17;;;10.00;99.90;;;;;;5082812;28;20052;-69
2022/03/30 10:41:10;;;;;;;4.65;1.40;;;9.90;99.90;;;;;;5056955;28;20056;-69
2022/03/30 10:43:37;;;;;;;2.72;1.25;;;9.80;99.90;;;;;;5064547;28;20176;-69
2022/03/30 10:46:04;;;;;;;2.80;1.30;;;9.80;99.90;;;;;;5077422;28;20048;-69
2022/03/30 10:48:39;;;;;;;7.70;1.50;;;9.60;99.90;;;;;;5072581;28;20040;-70
2022/03/30 10:51:19;;;;;;;5.70;1.25;;;9.60;99.90;;;;;;5090405;28;20048;-69
2022/03/30 10:53:49;;;;;;;3.90;1.90;;;9.70;99.90;;;;;;5077475;28;20430;-70
2022/03/30 10:56:28;;;;;;;3.78;1.27;;;10.00;99.60;;;;;;5076582;28;20047;-70
2022/03/30 10:59:14;;;;;;;3.38;1.33;;;10.20;97.90;;;;;;5094608;28;20063;-71
2022/03/30 11:01:42;;;;;;;6.50;1.40;;;10.30;97.90;;;;;;5076783;28;20052;-70
2022/03/30 11:04:24;;;;;;;5.95;2.03;;;10.20;96.70;;;;;;5094474;28;20122;-70
2022/03/30 11:07:31;;;;;;;2.33;1.10;;;10.00;96.40;;;;;;5073324;28;20051;-70
2022/03/30 11:10:19;;;;;;;3.47;1.35;;;9.80;96.40;;;;;;5069498;28;20558;-70
2022/03/30 11:13:11;;;;;;;6.15;1.02;;;9.30;95.80;;;;;;5074099;28;20496;-70
2022/03/30 11:16:11;;;;;;;3.53;1.48;;;8.90;96.60;;;;;;5059737;28;20519;-69
2022/03/30 11:19:02;;;;;;;2.85;0.80;;;8.80;96.60;;;;;;5066244;28;20052;-70
2022/03/30 11:21:30;;;;;;;5.90;2.53;;;8.60;96.30;;;;;;5094804;28;20048;-69
2022/03/30 11:24:12;;;;;;;5.18;1.27;;;8.60;97.20;;;;;;5076514;28;20449;-69
2022/03/30 11:27:21;;;;;;;3.83;1.20;;;8.60;97.00;;;;;;5073474;28;20055;-69
2022/03/30 11:30:01;;;;;;;5.40;1.80;;;8.70;97.70;;;;;;5076785;28;20059;-70
2022/03/30 11:32:40;;;;;;;2.80;1.40;;;8.90;96.80;;;;;;5072638;28;20056;-70
2022/03/30 11:35:09;;;;;;;5.47;1.73;;;9.10;96.50;;;;;;5083913;28;20040;-70
2022/03/30 11:37:38;;;;;;;3.47;1.10;;;9.40;96.50;;;;;;5073281;28;20471;-70
2022/03/30 11:40:07;;;;;;;3.97;1.52;;;9.70;96.50;;;;;;5078245;28;20093;-70
2022/03/30 11:42:36;;;;;;;2.85;1.10;;;10.20;94.70;;;;;;5076374;28;20052;-70
2022/03/30 11:45:15;;;;;;;3.83;0.88;;;11.10;93.50;;;;;;5075303;28;20052;-70
2022/03/30 11:47:47;;;;;;;8.18;1.20;;;11.80;96.10;;;;;;5075771;28;20052;-69
2022/03/30 11:50:17;;;;;;;10.32;1.10;;;12.40;90.20;;;;;;5076028;28;20105;-71
2022/03/30 11:52:44;;;;;;;5.20;1.27;;;12.80;87.50;;;;;;5076109;28;20055;-70
2022/03/30 11:55:11;;;;;;;4.03;1.10;;;13.40;84.30;;;;;;5093375;28;20051;-70
2022/03/30 11:57:40;;;;;;;6.60;1.45;;;13.60;84.90;;;;;;5094163;28;20082;-70
2022/03/30 12:00:11;;;;;;;3.83;1.30;;;13.10;81.00;;;;;;5071658;28;20044;-70
2022/03/30 12:02:39;;;;;;;2.35;0.90;;;13.20;82.40;;;;;;5075165;28;20055;-70
2022/03/30 12:05:08;;;;;;;5.88;1.85;;;13.80;82.30;;;;;;5075728;28;20093;-71
2022/03/30 12:07:36;;;;;;;4.10;2.03;;;14.80;80.00;;;;;;5071604;28;20052;-71
2022/03/30 12:10:05;;;;;;;3.63;1.52;;;15.50;77.70;;;;;;5055746;28;20056;-71
2022/03/30 12:12:36;;;;;;;5.15;1.35;;;15.80;77.30;;;;;;5055621;28;20052;-71
2022/03/30 12:15:05;;;;;;;4.60;1.02;;;15.20;73.40;;;;;;5073336;28;20125;-71
2022/03/30 12:17:34;;;;;;;3.47;0.80;;;15.00;75.00;;;;;;5075861;28;20105;-71
2022/03/30 12:20:02;;;;;;;5.22;1.95;;;14.40;75.10;;;;;;5093072;28;20561;-70
2022/03/30 12:22:29;;;;;;;8.13;1.10;;;13.70;73.90;;;;;;5093013;28;20113;-71
2022/03/30 12:24:56;;;;;;;4.07;1.23;;;13.60;75.80;;;;;;5093377;28;20553;-71
2022/03/30 12:27:24;;;;;;;6.88;1.08;;;13.90;75.90;;;;;;5093380;28;20565;-71
2022/03/30 12:29:55;;;;;;;3.70;1.45;;;13.80;75.90;;;;;;5093102;28;20455;-71
2022/03/30 12:32:23;;;;;;;4.18;1.48;;;13.50;75.10;;;;;;5075513;28;20051;-71
2022/03/30 12:35:09;;;;;;;4.20;0.90;;;13.20;74.40;;;;;;5093163;28;20513;-71
2022/03/30 12:37:36;;;;;;;5.35;2.00;;;12.90;74.50;;;;;;5074954;28;20056;-71
2022/03/30 12:40:14;;;;;;;5.28;1.80;;;12.80;77.30;;;;;;5077633;28;20098;-71
2022/03/30 12:42:44;;;;;;;4.43;1.45;;;13.00;77.50;;;;;;5113237;28;20047;-71
2022/03/30 12:45:14;;;;;;;5.97;1.73;;;13.30;77.60;;;;;;5095452;28;20043;-71
2022/03/30 12:47:48;;;;;;;4.68;1.25;;;13.30;75.70;;;;;;5095649;28;20135;-71
2022/03/30 12:50:19;;;;;;;4.25;1.48;;;13.40;76.30;;;;;;5113008;28;20511;-71
2022/03/30 12:52:49;;;;;;;4.32;1.13;;;13.40;76.40;;;;;;5095475;28;20491;-71
2022/03/30 12:55:19;;;;;;;3.90;1.13;;;13.60;77.00;;;;;;5095477;28;20551;-71
2022/03/30 12:57:54;;;;;;;5.82;1.88;;;14.10;76.50;;;;;;5094854;28;20074;-71
2022/03/30 13:00:25;;;;;;;9.32;2.50;;;14.70;71.10;;;;;;5094007;28;20056;-71
2022/03/30 13:03:06;;;;;;;3.90;1.10;;;15.10;71.40;;;;;;5092966;28;20055;-71
2022/03/30 13:05:35;;;;;;;2.95;0.90;;;15.90;68.90;;;;;;5074101;28;20044;-71
2022/03/30 13:08:13;;;;;;;4.47;1.05;;;16.40;68.90;;;;;;5093247;28;20059;-71
2022/03/30 13:10:54;;;;;;;5.03;1.08;;;17.10;69.00;;;;;;5092181;28;20047;-71